Time;durP1;ratioP1;P1;durP2;ratioP2;P2;SDS_P1;SDS_P2;PMS_P1;PMS_P2;Temp;Humidity;BMP_temperature;BMP_pressure;BME280_temperature;BME280_humidity;BME280_pressure;Samples;Min_cycle;Max_cycle;Signal;HPM_P1;HPM_P2
2023/05/12 05:41:37;;;;;;;13.00;4.10;;;;;;;11.71;56.44;100972.24;101825;1273;22515;-45
2023/05/12 05:44:17;;;;;;;8.90;4.10;;;;;;;11.92;55.97;100971.86;109463;1276;22935;-45
2023/05/12 05:46:51;;;;;;;7.40;3.80;;;;;;;12.18;55.03;100973.56;109597;1276;22734;-53
2023/05/12 05:49:45;;;;;;;7.70;4.20;;;;;;;12.41;54.53;100968.05;109396;1279;22813;-54
2023/05/12 05:53:25;;;;;;;13.20;3.80;;;;;;;12.76;54.36;100964.98;109536;1274;22405;-54
2023/05/12 05:56:24;;;;;;;7.10;3.70;;;;;;;13.05;54.42;100963.44;109442;1279;22499;-54
2023/05/12 05:58:52;;;;;;;13.70;4.20;;;;;;;13.30;53.43;100965.92;109567;1274;22391;-54
2023/05/12 06:01:19;;;;;;;9.10;3.80;;;;;;;13.53;52.91;100961.69;109586;1279;22388;-55
2023/05/12 06:03:46;;;;;;;12.90;4.90;;;;;;;13.75;52.00;100963.23;109637;1274;22817;-53
2023/05/12 06:06:14;;;;;;;7.30;3.70;;;;;;;13.95;51.74;100959.84;109665;1279;22360;-53
2023/05/12 06:08:44;;;;;;;7.00;3.80;;;;;;;14.15;51.50;100955.91;109695;1273;22205;-53
2023/05/12 06:11:12;;;;;;;16.80;4.60;;;;;;;14.37;51.20;100957.73;108931;1279;22316;-55
2023/05/12 06:13:42;;;;;;;12.30;5.00;;;;;;;14.57;50.56;100957.14;109251;1273;22217;-55
2023/05/12 06:16:09;;;;;;;6.00;3.50;;;;;;;14.78;50.21;100952.26;109297;1277;23206;-54
2023/05/12 06:18:48;;;;;;;13.70;4.60;;;;;;;14.96;48.31;100955.99;108620;1276;22648;-53
2023/05/12 06:21:43;;;;;;;9.80;4.90;;;;;;;15.08;47.51;100955.55;109046;1273;22414;-55
2023/05/12 06:24:44;;;;;;;8.30;4.10;;;;;;;15.21;46.19;100955.09;109171;1277;23277;-54
2023/05/12 06:27:44;;;;;;;10.80;3.30;;;;;;;15.33;45.47;100956.04;109244;1274;25284;-46
2023/05/12 06:30:13;;;;;;;4.30;3.30;;;;;;;15.41;44.27;100952.98;108838;1279;22410;-46
2023/05/12 06:32:48;;;;;;;5.40;3.00;;;;;;;15.49;44.26;100955.70;109138;1277;22769;-46
2023/05/12 06:35:15;;;;;;;5.50;2.80;;;;;;;15.60;44.41;100953.33;108828;1275;22605;-44
2023/05/12 06:37:48;;;;;;;5.00;3.20;;;;;;;15.76;43.58;100951.42;108611;1277;22656;-45
2023/05/12 06:40:18;;;;;;;8.40;3.30;;;;;;;15.90;43.08;100953.91;109478;1273;22689;-46
2023/05/12 06:42:48;;;;;;;7.90;2.80;;;;;;;16.06;43.08;100954.60;109229;1279;22899;-53
2023/05/12 06:45:18;;;;;;;6.20;2.60;;;;;;;16.20;41.39;100954.06;109253;1280;22415;-45
2023/05/12 06:47:47;;;;;;;8.00;2.90;;;;;;;16.32;40.72;100955.67;108688;1276;22925;-45
2023/05/12 06:50:15;;;;;;;8.70;2.90;;;;;;;16.42;39.50;100952.71;109288;1274;22512;-54
2023/05/12 06:52:43;;;;;;;11.90;2.70;;;;;;;16.55;39.64;100953.06;108875;1277;22530;-53
2023/05/12 06:55:12;;;;;;;6.60;2.80;;;;;;;16.66;38.69;100950.80;109509;1276;22466;-53
2023/05/12 06:57:56;;;;;;;4.60;2.50;;;;;;;16.74;38.21;100947.72;108843;1273;22437;-52
2023/05/12 07:00:28;;;;;;;6.10;2.80;;;;;;;16.84;37.97;100945.63;109273;1275;22874;-52
2023/05/12 07:02:58;;;;;;;3.80;2.40;;;;;;;16.94;37.32;100947.23;108749;1280;22187;-54
2023/05/12 07:05:27;;;;;;;8.10;2.80;;;;;;;17.03;36.71;100948.84;109111;1276;22514;-53
2023/05/12 07:07:54;;;;;;;6.90;2.10;;;;;;;17.17;35.53;100949.16;109489;1273;22772;-53
2023/05/12 07:10:21;;;;;;;3.50;2.30;;;;;;;17.29;33.76;100946.98;109529;1273;23041;-54
2023/05/12 07:12:48;;;;;;;9.40;2.10;;;;;;;17.45;33.18;100950.42;109102;1273;22395;-53
2023/05/12 07:15:16;;;;;;;10.20;1.70;;;;;;;17.60;31.84;100950.16;108060;1276;22542;-46
2023/05/12 07:17:46;;;;;;;2.50;2.00;;;;;;;17.74;31.21;100945.31;108841;1275;22640;-54
2023/05/12 07:20:18;;;;;;;2.50;1.90;;;;;;;17.91;31.00;100945.35;109494;1273;23328;-46
2023/05/12 07:22:46;;;;;;;5.20;1.60;;;;;;;18.11;30.79;100944.40;109142;1277;22910;-54
2023/05/12 07:25:14;;;;;;;4.50;2.00;;;;;;;18.27;29.87;100947.09;109595;1275;22288;-46
2023/05/12 07:27:42;;;;;;;3.70;2.00;;;;;;;18.25;29.06;100942.52;109609;1273;22352;-46
2023/05/12 07:30:09;;;;;;;3.50;2.20;;;;;;;18.15;29.29;100940.27;109680;1276;22367;-46
2023/05/12 07:32:36;;;;;;;5.20;1.90;;;;;;;18.18;29.63;100941.44;109445;1277;23067;-46
2023/05/12 07:35:04;;;;;;;5.90;1.90;;;;;;;18.25;29.03;100939.18;109705;1274;22178;-46
2023/05/12 07:37:31;;;;;;;3.30;1.70;;;;;;;18.35;27.94;100941.94;109659;1276;22287;-54
2023/05/12 07:39:58;;;;;;;2.40;1.50;;;;;;;18.48;27.82;100939.73;109540;1273;22703;-54
2023/05/12 07:42:25;;;;;;;3.30;1.70;;;;;;;18.61;28.06;100935.55;109630;1274;22399;-54
2023/05/12 07:44:52;;;;;;;2.80;2.10;;;;;;;18.74;28.79;100936.17;109713;1273;22669;-46
2023/05/12 07:47:19;;;;;;;2.50;1.70;;;;;;;18.85;28.88;100934.13;109291;1273;22511;-46
2023/05/12 07:49:46;;;;;;;5.30;2.20;;;;;;;18.94;28.24;100930.57;109619;1276;22342;-53
2023/05/12 07:52:13;;;;;;;3.20;2.00;;;;;;;18.90;27.04;100928.87;108755;1273;22572;-46
2023/05/12 07:54:40;;;;;;;6.50;2.00;;;;;;;18.88;27.62;100928.23;109604;1279;22413;-46
2023/05/12 07:57:08;;;;;;;2.70;2.10;;;;;;;18.95;27.94;100923.27;109134;1274;22413;-54
2023/05/12 07:59:39;;;;;;;9.70;2.30;;;;;;;19.04;28.15;100923.76;109555;1270;22323;-53
2023/05/12 08:02:06;;;;;;;9.00;2.80;;;;;;;19.06;26.95;100921.08;108431;1275;22532;-47
2023/05/12 08:04:43;;;;;;;3.00;2.20;;;;;;;18.89;27.23;100928.73;109618;1274;22288;-54
2023/05/12 08:07:12;;;;;;;2.60;1.70;;;;;;;18.77;27.75;100930.44;109458;1276;23125;-53
2023/05/12 08:09:39;;;;;;;8.90;2.00;;;;;;;18.78;27.87;100929.88;109443;1276;22322;-53
2023/05/12 08:12:07;;;;;;;3.40;2.00;;;;;;;18.86;27.98;100930.21;108946;1280;24209;-45
2023/05/12 08:14:36;;;;;;;2.60;2.20;;;;;;;19.01;26.63;100922.78;109428;1280;22933;-54
2023/05/12 08:17:33;;;;;;;4.90;2.00;;;;;;;19.14;26.89;100917.67;109478;1277;23633;-54
2023/05/12 08:20:12;;;;;;;6.80;2.10;;;;;;;19.32;26.81;100913.85;109506;1281;23098;-54
2023/05/12 08:22:40;;;;;;;3.10;1.80;;;;;;;19.45;27.13;100918.63;109208;1279;22340;-53
2023/05/12 08:25:10;;;;;;;3.50;2.30;;;;;;;19.66;27.35;100917.56;109066;1280;23321;-54
2023/05/12 08:27:49;;;;;;;5.90;2.00;;;;;;;19.88;26.61;100911.46;109389;1273;22774;-46
2023/05/12 08:30:21;;;;;;;3.50;2.40;;;;;;;20.01;26.05;100913.39;109335;1277;24159;-45
2023/05/12 08:32:48;;;;;;;5.60;2.50;;;;;;;20.01;25.02;100909.14;108421;1275;22946;-45
2023/05/12 08:35:15;;;;;;;3.40;1.80;;;;;;;19.91;24.57;100912.96;108897;1273;22225;-45
2023/05/12 08:37:46;;;;;;;3.20;2.30;;;;;;;19.81;24.59;100912.20;109710;1279;23203;-44
2023/05/12 08:40:19;;;;;;;6.50;2.00;;;;;;;19.74;24.36;100908.52;109127;1274;22412;-53
2023/05/12 08:43:21;;;;;;;3.40;1.70;;;;;;;19.70;24.16;100908.45;108551;1276;22510;-53
2023/05/12 08:45:56;;;;;;;3.30;1.80;;;;;;;19.68;25.36;100907.27;108434;1280;22315;-47
2023/05/12 08:48:26;;;;;;;6.90;2.10;;;;;;;19.75;25.43;100906.88;109149;1279;22864;-45
2023/05/12 08:50:53;;;;;;;2.60;1.60;;;;;;;19.76;24.87;100905.61;109175;1280;22802;-45
2023/05/12 08:53:21;;;;;;;4.30;1.90;;;;;;;19.69;24.81;100906.70;109587;1280;22613;-45
2023/05/12 08:55:48;;;;;;;14.90;2.80;;;;;;;19.61;24.84;100910.09;109414;1280;22557;-45
2023/05/12 08:58:35;;;;;;;5.50;1.90;;;;;;;19.61;24.68;100901.25;109497;1276;22250;-45
2023/05/12 09:01:08;;;;;;;4.10;1.80;;;;;;;19.71;25.08;100901.52;109468;1281;22313;-45
2023/05/12 09:03:35;;;;;;;2.00;1.60;;;;;;;19.89;24.81;100899.94;109428;1280;22850;-53
2023/05/12 09:06:02;;;;;;;4.50;1.80;;;;;;;20.03;24.58;100897.58;109381;1280;22954;-45
2023/05/12 09:08:33;;;;;;;4.10;1.80;;;;;;;20.24;25.26;100901.56;109359;1280;22877;-50
2023/05/12 09:11:01;;;;;;;9.60;1.80;;;;;;;20.41;25.06;100903.16;109367;1281;22386;-46
2023/05/12 09:13:51;;;;;;;2.50;1.70;;;;;;;20.50;24.62;100897.92;109546;1280;23150;-46
2023/05/12 09:16:22;;;;;;;4.50;1.80;;;;;;;20.58;24.06;100892.18;109579;1280;22440;-45
2023/05/12 09:18:53;;;;;;;3.10;1.70;;;;;;;20.63;24.20;100891.86;109633;1276;22987;-54
2023/05/12 09:21:20;;;;;;;5.80;2.00;;;;;;;20.73;24.64;100891.36;109596;1276;22631;-54
2023/05/12 09:24:05;;;;;;;4.20;2.00;;;;;;;20.72;23.84;100893.34;109179;1277;22669;-53
2023/05/12 09:26:53;;;;;;;6.10;2.20;;;;;;;20.67;23.86;100885.52;109439;1273;22526;-46
2023/05/12 09:29:20;;;;;;;3.90;1.60;;;;;;;20.70;24.31;100884.02;109610;1270;23339;-54
2023/05/12 09:32:01;;;;;;;3.90;2.00;;;;;;;20.84;24.14;100875.74;109658;1278;22338;-54
2023/05/12 09:34:30;;;;;;;4.10;2.40;;;;;;;20.96;23.94;100871.96;109538;1280;22753;-53
2023/05/12 09:36:59;;;;;;;4.70;2.60;;;;;;;21.03;24.52;100871.21;109605;1280;22979;-55
2023/05/12 09:39:28;;;;;;;7.30;2.60;;;;;;;21.09;24.30;100871.01;109784;1279;22950;-47
2023/05/12 09:41:56;;;;;;;5.60;2.30;;;;;;;21.09;24.15;100871.89;109591;1278;22848;-54
2023/05/12 09:44:23;;;;;;;3.00;1.80;;;;;;;21.14;23.82;100867.61;109643;1280;22324;-46
2023/05/12 09:46:51;;;;;;;6.40;2.10;;;;;;;21.23;23.70;100871.73;109717;1274;22768;-52
2023/05/12 09:49:19;;;;;;;5.80;2.20;;;;;;;21.32;23.89;100869.90;109674;1280;23447;-45
2023/05/12 09:51:46;;;;;;;5.50;1.90;;;;;;;21.37;24.40;100866.67;109692;1277;23005;-52
2023/05/12 09:54:26;;;;;;;3.50;1.80;;;;;;;21.53;24.70;100867.34;109485;1280;22602;-54
2023/05/12 09:56:57;;;;;;;5.80;1.90;;;;;;;21.68;23.52;100867.66;109028;1277;22889;-53
2023/05/12 09:59:32;;;;;;;2.60;1.60;;;;;;;21.82;24.28;100868.58;109438;1280;22507;-54
2023/05/12 10:02:00;;;;;;;4.60;1.80;;;;;;;21.95;23.57;100859.91;109525;1280;22361;-55
2023/05/12 10:04:27;;;;;;;2.60;2.00;;;;;;;22.04;22.84;100850.49;109643;1280;22874;-53
2023/05/12 10:06:55;;;;;;;6.30;2.10;;;;;;;22.02;23.61;100856.09;109666;1273;22401;-53
2023/05/12 10:09:30;;;;;;;3.40;1.90;;;;;;;21.96;23.28;100858.27;109494;1280;22210;-45
2023/05/12 10:12:07;;;;;;;6.60;1.90;;;;;;;21.82;23.09;100856.70;109179;1273;22693;-46
2023/05/12 10:14:34;;;;;;;5.20;1.80;;;;;;;21.74;23.06;100855.54;108870;1280;22792;-45
2023/05/12 10:17:01;;;;;;;3.70;2.00;;;;;;;21.75;23.01;100851.45;109541;1273;22147;-53
2023/05/12 10:19:29;;;;;;;10.30;2.10;;;;;;;21.91;22.71;100842.14;109440;1280;22714;-45
2023/05/12 10:21:56;;;;;;;6.00;1.90;;;;;;;21.99;22.68;100842.72;109586;1280;22485;-45
2023/05/12 10:24:26;;;;;;;7.20;2.10;;;;;;;21.97;22.79;100846.54;109315;1280;22332;-54
2023/05/12 10:26:55;;;;;;;5.50;2.90;;;;;;;21.87;23.09;100843.91;109438;1280;22701;-53
2023/05/12 10:29:31;;;;;;;5.20;2.00;;;;;;;21.68;23.10;100842.86;109441;1280;23283;-52
2023/05/12 10:32:00;;;;;;;4.20;2.20;;;;;;;21.35;22.90;100838.36;109694;1274;22897;-56
2023/05/12 10:34:35;;;;;;;2.10;1.80;;;;;;;21.03;23.17;100840.71;109610;1275;22836;-51
2023/05/12 10:37:09;;;;;;;6.20;2.20;;;;;;;20.80;23.74;100840.08;109557;1277;22420;-55
2023/05/12 10:39:45;;;;;;;8.20;1.70;;;;;;;20.67;23.90;100835.72;109572;1280;22294;-54
2023/05/12 10:42:24;;;;;;;2.60;1.90;;;;;;;20.61;23.95;100837.52;109586;1275;23307;-53
2023/05/12 10:44:53;;;;;;;6.50;2.10;;;;;;;20.58;23.80;100838.86;109596;1280;22358;-54
2023/05/12 10:47:28;;;;;;;2.70;1.80;;;;;;;20.66;23.63;100841.27;109568;1278;22393;-54
2023/05/12 10:49:58;;;;;;;6.90;2.00;;;;;;;20.86;22.89;100834.56;109631;1267;22319;-55
2023/05/12 10:52:25;;;;;;;2.60;1.50;;;;;;;21.05;23.20;100833.17;109663;1280;22378;-53
2023/05/12 10:54:59;;;;;;;2.30;1.50;;;;;;;21.41;23.56;100835.48;109674;1274;22391;-54
2023/05/12 10:57:26;;;;;;;12.90;2.50;;;;;;;21.90;23.47;100829.56;109687;1280;22582;-46
2023/05/12 10:59:57;;;;;;;4.70;1.70;;;;;;;22.19;23.10;100833.61;109688;1280;22334;-45
2023/05/12 11:02:33;;;;;;;5.60;1.60;;;;;;;22.30;22.47;100831.20;109685;1280;22202;-52
2023/05/12 11:05:09;;;;;;;2.30;1.90;;;;;;;22.22;22.06;100834.23;109708;1277;22193;-45
2023/05/12 11:07:37;;;;;;;4.70;1.50;;;;;;;22.08;22.48;100836.90;109725;1280;22197;-45
2023/05/12 11:10:06;;;;;;;3.30;1.60;;;;;;;21.90;22.36;100834.35;109827;1280;22356;-45
2023/05/12 11:12:36;;;;;;;7.90;1.70;;;;;;;21.77;22.59;100838.22;109860;1280;23027;-53
2023/05/12 11:15:04;;;;;;;2.80;1.70;;;;;;;21.73;22.58;100833.23;109898;1280;22952;-54
2023/05/12 11:17:31;;;;;;;1.80;1.70;;;;;;;21.82;22.38;100830.95;109824;1280;22287;-54
2023/05/12 11:20:00;;;;;;;5.90;1.70;;;;;;;21.88;22.38;100821.84;109802;1280;22365;-45
2023/05/12 11:22:27;;;;;;;7.30;2.00;;;;;;;21.93;21.89;100820.41;109793;1281;22267;-54
2023/05/12 11:24:54;;;;;;;2.60;1.80;;;;;;;22.00;21.81;100821.73;109715;1280;22902;-53
2023/05/12 11:27:21;;;;;;;4.10;1.40;;;;;;;22.02;21.90;100821.63;109739;1280;22281;-54
2023/05/12 11:29:59;;;;;;;5.30;2.00;;;;;;;22.02;21.87;100816.66;109815;1280;22266;-45
2023/05/12 11:32:28;;;;;;;2.40;1.50;;;;;;;22.07;21.75;100816.12;109845;1281;22312;-46
2023/05/12 11:35:15;;;;;;;2.60;1.70;;;;;;;22.13;21.29;100813.80;109884;1276;22334;-45
2023/05/12 11:37:43;;;;;;;3.50;1.80;;;;;;;22.07;20.77;100814.72;109871;1280;22994;-45
2023/05/12 11:40:14;;;;;;;5.40;2.00;;;;;;;21.90;21.33;100817.14;109910;1280;22207;-45
2023/05/12 11:42:44;;;;;;;4.60;1.80;;;;;;;21.77;21.86;100816.93;109971;1280;22344;-45
2023/05/12 11:45:20;;;;;;;2.60;1.60;;;;;;;21.71;22.28;100817.52;109894;1281;22816;-46
2023/05/12 11:47:47;;;;;;;3.70;1.30;;;;;;;21.65;22.05;100817.23;109918;1281;22299;-45
2023/05/12 11:50:24;;;;;;;4.00;1.40;;;;;;;21.59;22.50;100814.77;109917;1281;22288;-45
2023/05/12 11:52:51;;;;;;;3.60;1.60;;;;;;;21.49;22.69;100815.84;109936;1281;23135;-53
2023/05/12 11:55:21;;;;;;;3.20;1.80;;;;;;;21.31;22.92;100821.30;109704;1280;23363;-53
2023/05/12 11:57:59;;;;;;;2.90;1.40;;;;;;;21.14;23.39;100818.67;108263;1280;25281;-53
2023/05/12 12:00:31;;;;;;;2.20;1.40;;;;;;;21.01;23.48;100819.48;108734;1280;22522;-45
2023/05/12 12:03:08;;;;;;;2.50;1.70;;;;;;;20.92;23.47;100816.25;108089;1281;22336;-46
2023/05/12 12:05:36;;;;;;;5.20;1.80;;;;;;;20.87;23.31;100815.20;107264;1281;24735;-45
2023/05/12 12:08:13;;;;;;;2.00;1.40;;;;;;;20.84;23.18;100815.30;109164;1281;22847;-45
2023/05/12 12:10:44;;;;;;;2.80;1.60;;;;;;;20.86;23.31;100814.52;109924;1280;22435;-45
2023/05/12 12:13:21;;;;;;;3.40;1.80;;;;;;;20.90;23.50;100813.34;107414;1280;25257;-53
2023/05/12 12:15:49;;;;;;;3.40;1.60;;;;;;;20.93;23.19;100811.44;108018;1280;24215;-45
2023/05/12 12:18:16;;;;;;;3.80;1.30;;;;;;;20.97;23.34;100807.20;107244;1263;22998;-53
2023/05/12 12:20:43;;;;;;;5.30;1.40;;;;;;;21.05;23.08;100802.86;107120;1281;23887;-53
2023/05/12 12:23:10;;;;;;;2.50;1.40;;;;;;;21.26;23.44;100802.13;106868;1281;22882;-45
2023/05/12 12:25:37;;;;;;;4.80;1.60;;;;;;;21.43;23.05;100805.95;106877;1281;22542;-52
2023/05/12 12:28:04;;;;;;;2.90;1.60;;;;;;;21.49;23.01;100803.95;107236;1281;22542;-45
2023/05/12 12:30:31;;;;;;;4.10;2.00;;;;;;;21.52;22.62;100799.25;107751;1280;22935;-54
2023/05/12 12:32:58;;;;;;;1.60;1.50;;;;;;;21.51;22.36;100798.38;106979;1280;22531;-46
2023/05/12 12:35:25;;;;;;;2.70;1.80;;;;;;;21.54;22.72;100797.40;107484;1281;22690;-46
2023/05/12 12:37:52;;;;;;;5.10;1.80;;;;;;;21.49;22.50;100796.52;106691;1280;24379;-48
2023/05/12 12:40:20;;;;;;;2.80;1.80;;;;;;;21.45;22.08;100795.44;107215;1280;22525;-53
2023/05/12 12:42:47;;;;;;;4.10;1.80;;;;;;;21.37;22.08;100792.71;107286;1280;25462;-54
2023/05/12 12:45:14;;;;;;;3.20;1.80;;;;;;;21.37;22.25;100790.75;107976;1275;23237;-46
2023/05/12 12:47:42;;;;;;;3.30;1.90;;;;;;;21.48;21.68;100788.56;109649;1277;22311;-45
2023/05/12 12:50:09;;;;;;;2.70;1.90;;;;;;;21.68;21.64;100786.74;109898;1280;22829;-45
2023/05/12 12:52:37;;;;;;;5.00;1.90;;;;;;;22.00;21.55;100783.37;109962;1280;22990;-54
2023/05/12 12:55:05;;;;;;;3.50;1.70;;;;;;;22.37;21.45;100782.09;109818;1280;22281;-54
2023/05/12 12:57:32;;;;;;;1.50;1.30;;;;;;;22.89;20.81;100781.66;109928;1280;22255;-47
2023/05/12 13:00:00;;;;;;;5.30;1.60;;;;;;;23.38;20.24;100776.31;109498;1280;22902;-46
2023/05/12 13:02:27;;;;;;;7.80;1.60;;;;;;;23.72;20.60;100775.31;107527;1280;22641;-45
2023/05/12 13:04:54;;;;;;;2.20;1.30;;;;;;;23.83;19.96;100774.44;107029;1280;22514;-54
2023/05/12 13:07:21;;;;;;;2.70;1.80;;;;;;;23.72;19.28;100770.14;109095;1280;22246;-45
2023/05/12 13:09:48;;;;;;;3.50;1.60;;;;;;;23.64;19.31;100773.34;106955;1280;25307;-45
2023/05/12 13:12:15;;;;;;;4.70;1.40;;;;;;;23.61;19.39;100778.80;107353;1280;22543;-45
2023/05/12 13:14:42;;;;;;;5.10;1.90;;;;;;;23.63;19.43;100779.82;107156;1280;23871;-45
2023/05/12 13:17:09;;;;;;;7.30;1.80;;;;;;;23.50;19.25;100778.42;106761;1281;25582;-54
2023/05/12 13:19:36;;;;;;;4.40;1.80;;;;;;;23.28;19.65;100781.23;108120;1281;23068;-45
2023/05/12 13:22:04;;;;;;;5.10;2.60;;;;;;;22.96;19.71;100784.23;108390;1281;22631;-53
2023/05/12 13:24:31;;;;;;;4.90;1.70;;;;;;;22.65;19.86;100784.27;108252;1281;25268;-45
2023/05/12 13:26:58;;;;;;;5.60;1.40;;;;;;;22.39;20.06;100783.57;106917;1281;22596;-45
2023/05/12 13:29:25;;;;;;;4.40;1.90;;;;;;;22.21;20.47;100783.79;108427;1281;22530;-46
2023/05/12 13:31:53;;;;;;;2.30;1.50;;;;;;;22.05;19.73;100781.77;107006;1281;22680;-46
2023/05/12 13:34:20;;;;;;;3.90;1.40;;;;;;;21.88;20.11;100782.97;106977;1281;24297;-46
2023/05/12 13:36:47;;;;;;;2.30;1.60;;;;;;;21.75;20.64;100781.33;106894;1281;25419;-54
2023/05/12 13:39:14;;;;;;;3.40;1.70;;;;;;;21.64;21.19;100777.50;106796;1281;22656;-46
2023/05/12 13:41:43;;;;;;;1.50;1.20;;;;;;;21.49;21.36;100777.35;106905;1281;24192;-55
2023/05/12 13:44:10;;;;;;;2.30;1.20;;;;;;;21.36;21.36;100775.34;107118;1281;22576;-52
2023/05/12 13:46:37;;;;;;;1.70;1.60;;;;;;;21.30;21.40;100774.67;107226;1281;22687;-45
2023/05/12 13:49:04;;;;;;;3.00;1.90;;;;;;;21.41;21.38;100776.73;106786;1280;25404;-45
2023/05/12 13:51:31;;;;;;;3.20;1.70;;;;;;;21.89;20.88;100769.42;106923;1280;22538;-54
2023/05/12 13:53:58;;;;;;;3.60;1.60;;;;;;;22.65;20.33;100766.52;106608;1280;22530;-53
2023/05/12 13:56:25;;;;;;;7.10;2.10;;;;;;;23.06;19.72;100762.64;107406;1280;22927;-45
2023/05/12 13:58:52;;;;;;;2.30;1.60;;;;;;;23.15;19.62;100758.28;106842;1280;22561;-46
2023/05/12 14:01:19;;;;;;;6.00;1.50;;;;;;;23.13;18.91;100761.97;106857;1280;22534;-44
2023/05/12 14:03:46;;;;;;;4.10;1.90;;;;;;;22.88;18.66;100759.11;107121;1280;25344;-52
2023/05/12 14:06:13;;;;;;;2.30;1.50;;;;;;;22.57;18.96;100756.19;106703;1280;22533;-45
2023/05/12 14:08:40;;;;;;;3.10;1.50;;;;;;;22.39;19.42;100753.56;106631;1280;22533;-47
2023/05/12 14:11:07;;;;;;;4.40;2.20;;;;;;;22.20;19.72;100753.46;106989;1280;22739;-47
2023/05/12 14:13:34;;;;;;;5.50;2.10;;;;;;;21.95;20.32;100748.92;106938;1280;24340;-45
2023/05/12 14:16:02;;;;;;;8.40;1.60;;;;;;;21.78;20.33;100752.10;106834;1280;26574;-53
2023/05/12 14:18:30;;;;;;;7.40;2.40;;;;;;;21.66;20.71;100757.90;106667;1280;25409;-44
2023/05/12 14:20:57;;;;;;;4.60;1.80;;;;;;;21.55;20.62;100756.02;107141;1280;22721;-45
2023/05/12 14:23:24;;;;;;;5.50;1.80;;;;;;;21.51;20.91;100758.46;106942;1280;22618;-54
2023/05/12 14:25:51;;;;;;;5.30;1.70;;;;;;;21.54;20.72;100760.48;107012;1280;25428;-52
2023/05/12 14:28:17;;;;;;;3.30;1.70;;;;;;;21.66;20.73;100763.23;106799;1280;22796;-45
2023/05/12 14:30:47;;;;;;;3.40;1.80;;;;;;;21.80;20.76;100760.20;107169;1280;22588;-44
2023/05/12 14:33:14;;;;;;;7.10;2.40;;;;;;;22.01;20.71;100757.92;106677;1280;25343;-44
2023/05/12 14:35:41;;;;;;;2.00;1.50;;;;;;;22.18;20.53;100756.92;106981;1263;24331;-44
2023/05/12 14:38:14;;;;;;;3.50;1.70;;;;;;;22.24;20.56;100758.29;106937;1280;24270;-52
2023/05/12 14:40:41;;;;;;;10.20;2.20;;;;;;;22.13;21.20;100758.16;106631;1280;23901;-53
2023/05/12 14:43:08;;;;;;;5.80;2.30;;;;;;;21.97;21.78;100759.34;106639;1280;22564;-53
2023/05/12 14:45:35;;;;;;;5.30;2.30;;;;;;;21.82;22.39;100759.40;106985;1280;24027;-52
2023/05/12 14:48:02;;;;;;;10.30;2.40;;;;;;;21.67;22.34;100763.01;106708;1280;22548;-46
2023/05/12 14:50:29;;;;;;;2.70;1.90;;;;;;;21.50;21.85;100763.66;107071;1280;24475;-46
2023/05/12 14:52:56;;;;;;;11.70;2.20;;;;;;;21.37;22.14;100763.24;106676;1280;22522;-52
2023/05/12 14:55:24;;;;;;;8.20;2.20;;;;;;;21.27;22.35;100765.02;107000;1280;22536;-54
2023/05/12 14:57:51;;;;;;;5.20;2.10;;;;;;;21.20;22.41;100764.02;106648;1259;22875;-45
2023/05/12 15:00:20;;;;;;;2.50;1.80;;;;;;;21.19;22.47;100763.50;106982;1280;22554;-46
2023/05/12 15:02:47;;;;;;;6.00;2.30;;;;;;;21.19;22.79;100762.10;107026;1280;25405;-46
2023/05/12 15:05:15;;;;;;;11.80;2.40;;;;;;;21.26;22.60;100762.21;106806;1280;26554;-54
2023/05/12 15:07:41;;;;;;;2.40;1.60;;;;;;;21.31;22.52;100762.23;106828;1280;22528;-51
2023/05/12 15:10:09;;;;;;;11.80;2.30;;;;;;;21.36;22.04;100761.88;107000;1280;22527;-45
2023/05/12 15:12:36;;;;;;;4.10;2.00;;;;;;;21.40;22.06;100755.00;107029;1280;22649;-54
2023/05/12 15:15:07;;;;;;;9.80;2.10;;;;;;;21.46;22.33;100750.31;106623;1280;22542;-45
2023/05/12 15:17:34;;;;;;;6.90;2.10;;;;;;;21.64;21.62;100748.02;107133;1280;22526;-46
2023/05/12 15:20:02;;;;;;;5.30;2.10;;;;;;;21.76;21.38;100748.27;106834;1280;24693;-50
2023/05/12 15:22:30;;;;;;;3.10;1.90;;;;;;;21.78;21.18;100750.29;107037;1280;22508;-53
2023/05/12 15:24:57;;;;;;;4.00;1.70;;;;;;;21.78;21.14;100746.23;106766;1280;24581;-45
2023/05/12 15:27:25;;;;;;;5.00;1.90;;;;;;;21.79;20.91;100746.17;106674;1280;22573;-53
2023/05/12 15:29:52;;;;;;;2.80;2.20;;;;;;;21.76;20.62;100747.38;106560;1280;22548;-45
2023/05/12 15:32:19;;;;;;;4.20;1.90;;;;;;;21.69;21.01;100746.95;106681;1280;22547;-45
2023/05/12 15:34:46;;;;;;;5.50;1.70;;;;;;;21.60;21.65;100749.08;106934;1280;22579;-47
2023/05/12 15:37:13;;;;;;;3.10;1.80;;;;;;;21.44;22.29;100748.41;106749;1280;22589;-45
2023/05/12 15:39:40;;;;;;;3.90;2.00;;;;;;;21.33;22.31;100750.27;106927;1280;22535;-45
2023/05/12 15:42:07;;;;;;;8.30;1.60;;;;;;;21.27;22.52;100752.59;107726;1280;22556;-45
2023/05/12 15:44:35;;;;;;;2.80;1.90;;;;;;;21.22;22.75;100752.40;107118;1280;22550;-54
2023/05/12 15:47:02;;;;;;;5.40;1.90;;;;;;;21.14;22.98;100755.18;107199;1280;22861;-44
2023/05/12 15:49:29;;;;;;;2.00;1.40;;;;;;;21.12;23.17;100750.82;106746;1280;22661;-53
2023/05/12 15:51:56;;;;;;;6.20;1.60;;;;;;;21.16;23.44;100753.70;107349;1280;22537;-55
2023/05/12 15:54:25;;;;;;;7.40;1.70;;;;;;;21.16;23.82;100753.52;106882;1280;24220;-53
2023/05/12 15:56:52;;;;;;;5.20;2.00;;;;;;;21.11;23.83;100752.98;107155;1280;25278;-46
2023/05/12 15:59:19;;;;;;;3.30;1.80;;;;;;;21.02;23.78;100753.52;106935;1280;22518;-53
2023/05/12 16:01:46;;;;;;;2.30;1.40;;;;;;;20.86;23.55;100753.20;106839;1280;22658;-45
2023/05/12 16:04:13;;;;;;;3.80;1.60;;;;;;;20.72;23.59;100755.26;106964;1280;22813;-46
2023/05/12 16:06:40;;;;;;;3.40;1.80;;;;;;;20.61;23.97;100756.02;106831;1280;24971;-54
2023/05/12 16:09:08;;;;;;;6.00;1.70;;;;;;;20.51;23.99;100756.02;107043;1280;22539;-44
2023/05/12 16:11:35;;;;;;;2.20;1.60;;;;;;;20.42;24.24;100755.91;106794;1280;23923;-54
2023/05/12 16:14:02;;;;;;;2.20;1.40;;;;;;;20.33;24.24;100756.21;107373;1280;22526;-46
2023/05/12 16:16:29;;;;;;;3.60;1.80;;;;;;;20.25;24.31;100758.08;107712;1280;22536;-53
2023/05/12 16:18:56;;;;;;;2.10;1.50;;;;;;;20.13;24.61;100755.77;107529;1280;22885;-53
2023/05/12 16:21:23;;;;;;;2.50;1.80;;;;;;;20.01;24.69;100756.35;107518;1280;22517;-53
2023/05/12 16:23:50;;;;;;;6.80;2.00;;;;;;;19.90;24.61;100758.46;107904;1280;22866;-43
2023/05/12 16:26:18;;;;;;;6.10;1.90;;;;;;;19.77;24.95;100762.23;107295;1280;22592;-54
2023/05/12 16:28:45;;;;;;;3.60;2.10;;;;;;;19.64;25.30;100767.21;106935;1280;22524;-46
2023/05/12 16:31:16;;;;;;;5.00;2.30;;;;;;;19.53;25.36;100765.58;107445;1280;22584;-45
2023/05/12 16:33:44;;;;;;;5.80;1.40;;;;;;;19.44;25.44;100768.32;107222;1280;22624;-46
2023/05/12 16:36:11;;;;;;;8.50;1.80;;;;;;;19.34;25.57;100765.96;107080;1280;22246;-46
2023/05/12 16:38:38;;;;;;;6.10;2.20;;;;;;;19.24;25.67;100768.36;107562;1280;22753;-47
2023/05/12 16:41:06;;;;;;;2.60;1.60;;;;;;;19.14;25.77;100771.10;107609;1280;22568;-55
2023/05/12 16:43:33;;;;;;;7.50;2.10;;;;;;;19.03;25.95;100773.36;107649;1280;22538;-45
2023/05/12 16:46:01;;;;;;;5.20;1.60;;;;;;;18.93;26.26;100774.54;106859;1280;22572;-45
2023/05/12 16:48:32;;;;;;;8.60;1.80;;;;;;;18.82;26.67;100778.69;107226;1280;22784;-48
2023/05/12 16:51:04;;;;;;;12.20;1.70;;;;;;;18.73;26.96;100784.95;107448;1280;22046;-55
2023/05/12 16:53:31;;;;;;;2.90;1.70;;;;;;;18.63;27.79;100787.66;107565;1257;25670;-53
2023/05/12 16:55:58;;;;;;;12.90;1.80;;;;;;;18.52;28.44;100785.78;106932;1280;26503;-45
2023/05/12 16:58:32;;;;;;;3.70;2.00;;;;;;;18.41;27.87;100786.08;107116;1280;22513;-54
2023/05/12 17:00:59;;;;;;;9.20;2.30;;;;;;;18.27;27.95;100783.23;106812;1280;23287;-45
2023/05/12 17:03:27;;;;;;;18.30;3.60;;;;;;;18.10;28.76;100787.50;107317;1280;24216;-45
2023/05/12 17:05:55;;;;;;;20.00;3.90;;;;;;;17.91;29.19;100787.79;106871;1280;22669;-48
2023/05/12 17:08:23;;;;;;;30.20;3.00;;;;;;;17.73;29.80;100790.45;106718;1280;22772;-46
2023/05/12 17:10:50;;;;;;;19.10;3.50;;;;;;;17.60;30.13;100792.84;107174;1280;22536;-54